sensor_id;sensor_type;location;lat;lon;timestamp;pressure;altitude;pressure_sealevel;temperature;humidity
58239;BME280;44037;55.638;37.356;2023-04-23T00:01:17;98932.50;;;8.93;50.89
58239;BME280;44037;55.638;37.356;2023-04-23T00:03:47;98932.53;;;8.94;50.46
58239;BME280;44037;55.638;37.356;2023-04-23T00:06:16;98929.06;;;8.98;50.84
58239;BME280;44037;55.638;37.356;2023-04-23T00:08:43;98925.66;;;9.02;50.32
58239;BME280;44037;55.638;37.356;2023-04-23T00:11:13;98935.97;;;9.04;50.29
58239;BME280;44037;55.638;37.356;2023-04-23T00:13:40;98932.56;;;9.08;50.24
58239;BME280;44037;55.638;37.356;2023-04-23T00:16:09;98930.00;;;9.14;50.24
58239;BME280;44037;55.638;37.356;2023-04-23T00:18:36;98936.03;;;9.21;50.10
58239;BME280;44037;55.638;37.356;2023-04-23T00:21:03;98937.78;;;9.24;50.00
58239;BME280;44037;55.638;37.356;2023-04-23T00:23:30;98936.94;;;9.26;49.93
58239;BME280;44037;55.638;37.356;2023-04-23T00:25:58;98937.81;;;9.28;49.94
58239;BME280;44037;55.638;37.356;2023-04-23T00:28:26;98933.50;;;9.30;49.75
58239;BME280;44037;55.638;37.356;2023-04-23T00:30:53;98933.50;;;9.29;49.66
58239;BME280;44037;55.638;37.356;2023-04-23T00:33:21;98938.66;;;9.27;49.94
58239;BME280;44037;55.638;37.356;2023-04-23T00:35:48;98930.03;;;9.25;49.80
58239;BME280;44037;55.638;37.356;2023-04-23T00:38:15;98946.41;;;9.22;49.81
58239;BME280;44037;55.638;37.356;2023-04-23T00:40:42;98943.78;;;9.21;49.94
58239;BME280;44037;55.638;37.356;2023-04-23T00:43:09;98943.78;;;9.16;49.84
58239;BME280;44037;55.638;37.356;2023-04-23T00:45:38;98954.97;;;9.15;50.14
58239;BME280;44037;55.638;37.356;2023-04-23T00:48:06;98951.53;;;9.12;50.84
58239;BME280;44037;55.638;37.356;2023-04-23T00:50:33;98953.19;;;9.00;53.54
58239;BME280;44037;55.638;37.356;2023-04-23T00:53:00;98951.38;;;8.84;55.63
58239;BME280;44037;55.638;37.356;2023-04-23T00:55:28;98950.44;;;8.63;57.44
58239;BME280;44037;55.638;37.356;2023-04-23T00:57:55;98949.44;;;8.47;58.60
58239;BME280;44037;55.638;37.356;2023-04-23T01:00:22;98954.53;;;8.35;59.99
58239;BME280;44037;55.638;37.356;2023-04-23T01:02:51;98959.59;;;8.22;61.09
58239;BME280;44037;55.638;37.356;2023-04-23T01:05:20;98957.75;;;8.10;61.18
58239;BME280;44037;55.638;37.356;2023-04-23T01:07:48;98958.53;;;8.00;62.46
58239;BME280;44037;55.638;37.356;2023-04-23T01:10:16;98955.03;;;7.92;62.83
58239;BME280;44037;55.638;37.356;2023-04-23T01:12:43;98961.00;;;7.86;63.12
58239;BME280;44037;55.638;37.356;2023-04-23T01:15:11;98962.66;;;7.82;63.90
58239;BME280;44037;55.638;37.356;2023-04-23T01:17:38;98973.00;;;7.81;63.89
58239;BME280;44037;55.638;37.356;2023-04-23T01:20:08;98961.81;;;7.83;63.86
58239;BME280;44037;55.638;37.356;2023-04-23T01:22:37;98966.97;;;7.83;64.21
58239;BME280;44037;55.638;37.356;2023-04-23T01:25:05;98960.09;;;7.82;64.78
58239;BME280;44037;55.638;37.356;2023-04-23T01:27:33;98964.41;;;7.82;64.72
58239;BME280;44037;55.638;37.356;2023-04-23T01:30:02;98960.91;;;7.75;64.85
58239;BME280;44037;55.638;37.356;2023-04-23T01:32:31;98963.41;;;7.69;65.74
58239;BME280;44037;55.638;37.356;2023-04-23T01:34:58;98961.66;;;7.65;65.88
58239;BME280;44037;55.638;37.356;2023-04-23T01:37:26;98966.75;;;7.59;65.96
58239;BME280;44037;55.638;37.356;2023-04-23T01:39:55;98967.59;;;7.56;65.77
58239;BME280;44037;55.638;37.356;2023-04-23T01:42:22;98970.97;;;7.52;66.60
58239;BME280;44037;55.638;37.356;2023-04-23T01:44:50;98973.53;;;7.50;67.20
58239;BME280;44037;55.638;37.356;2023-04-23T01:47:18;98971.75;;;7.45;67.06
58239;BME280;44037;55.638;37.356;2023-04-23T01:49:45;98973.44;;;7.41;67.33
58239;BME280;44037;55.638;37.356;2023-04-23T01:52:12;98972.56;;;7.39;67.83
58239;BME280;44037;55.638;37.356;2023-04-23T01:54:39;98965.72;;;7.43;67.42
58239;BME280;44037;55.638;37.356;2023-04-23T01:57:08;98977.81;;;7.48;68.33
58239;BME280;44037;55.638;37.356;2023-04-23T01:59:36;98970.13;;;7.51;68.76
58239;BME280;44037;55.638;37.356;2023-04-23T02:02:03;98979.63;;;7.59;68.39
58239;BME280;44037;55.638;37.356;2023-04-23T02:04:36;98983.19;;;7.67;68.97
58239;BME280;44037;55.638;37.356;2023-04-23T02:07:04;98980.69;;;7.76;69.27
58239;BME280;44037;55.638;37.356;2023-04-23T02:09:32;98986.75;;;7.83;68.82
58239;BME280;44037;55.638;37.356;2023-04-23T02:11:59;98980.84;;;7.92;69.14
58239;BME280;44037;55.638;37.356;2023-04-23T02:14:28;98979.19;;;7.98;68.96
58239;BME280;44037;55.638;37.356;2023-04-23T02:16:56;98982.69;;;8.08;69.38
58239;BME280;44037;55.638;37.356;2023-04-23T02:19:23;98992.28;;;8.23;69.36
58239;BME280;44037;55.638;37.356;2023-04-23T02:21:50;98987.22;;;8.37;68.93
58239;BME280;44037;55.638;37.356;2023-04-23T02:24:18;98989.97;;;8.53;68.64
58239;BME280;44037;55.638;37.356;2023-04-23T02:26:45;98987.47;;;8.67;68.79
58239;BME280;44037;55.638;37.356;2023-04-23T02:29:13;98990.13;;;8.84;68.26
58239;BME280;44037;55.638;37.356;2023-04-23T02:31:42;98991.97;;;9.00;68.04
58239;BME280;44037;55.638;37.356;2023-04-23T02:34:09;98986.00;;;9.15;67.85
58239;BME280;44037;55.638;37.356;2023-04-23T02:36:36;98989.50;;;9.30;67.76
58239;BME280;44037;55.638;37.356;2023-04-23T02:39:03;98990.41;;;9.46;67.66
58239;BME280;44037;55.638;37.356;2023-04-23T02:41:31;98986.16;;;9.63;67.06
58239;BME280;44037;55.638;37.356;2023-04-23T02:43:58;98987.94;;;9.80;66.69
58239;BME280;44037;55.638;37.356;2023-04-23T02:46:25;98988.81;;;9.97;66.75
58239;BME280;44037;55.638;37.356;2023-04-23T02:48:53;98992.28;;;10.12;66.12
58239;BME280;44037;55.638;37.356;2023-04-23T02:51:21;98995.75;;;10.20;65.89
58239;BME280;44037;55.638;37.356;2023-04-23T02:53:48;98997.47;;;10.23;65.29
58239;BME280;44037;55.638;37.356;2023-04-23T02:56:15;98996.59;;;10.25;64.85
58239;BME280;44037;55.638;37.356;2023-04-23T02:58:42;99000.91;;;10.29;64.33
58239;BME280;44037;55.638;37.356;2023-04-23T03:01:09;99002.63;;;10.37;64.44
58239;BME280;44037;55.638;37.356;2023-04-23T03:03:37;99008.72;;;10.39;62.98
58239;BME280;44037;55.638;37.356;2023-04-23T03:06:06;99010.44;;;10.40;62.67
58239;BME280;44037;55.638;37.356;2023-04-23T03:08:33;99007.84;;;10.43;62.68
58239;BME280;44037;55.638;37.356;2023-04-23T03:11:00;99010.44;;;10.48;62.56
58239;BME280;44037;55.638;37.356;2023-04-23T03:13:28;99013.88;;;10.56;61.94
58239;BME280;44037;55.638;37.356;2023-04-23T03:15:55;99015.59;;;10.65;61.67
58239;BME280;44037;55.638;37.356;2023-04-23T03:18:22;99018.19;;;10.74;61.71
58239;BME280;44037;55.638;37.356;2023-04-23T03:20:50;99017.31;;;10.81;61.81
58239;BME280;44037;55.638;37.356;2023-04-23T03:23:18;99011.25;;;10.88;61.62
58239;BME280;44037;55.638;37.356;2023-04-23T03:25:46;99026.78;;;10.99;61.32
58239;BME280;44037;55.638;37.356;2023-04-23T03:28:13;99031.94;;;11.05;60.42
58239;BME280;44037;55.638;37.356;2023-04-23T03:30:40;99025.88;;;11.13;60.65
58239;BME280;44037;55.638;37.356;2023-04-23T03:33:07;99031.03;;;11.19;60.77
58239;BME280;44037;55.638;37.356;2023-04-23T03:35:35;99037.94;;;11.25;60.21
58239;BME280;44037;55.638;37.356;2023-04-23T03:38:02;99045.72;;;11.31;59.68
58239;BME280;44037;55.638;37.356;2023-04-23T03:40:31;99037.88;;;11.37;59.60
58239;BME280;44037;55.638;37.356;2023-04-23T03:42:58;99040.47;;;11.46;59.33
58239;BME280;44037;55.638;37.356;2023-04-23T03:45:25;99036.09;;;11.55;59.63
58239;BME280;44037;55.638;37.356;2023-04-23T03:47:53;99036.06;;;11.61;58.88
58239;BME280;44037;55.638;37.356;2023-04-23T03:50:20;99040.38;;;11.68;58.59
58239;BME280;44037;55.638;37.356;2023-04-23T03:52:47;99041.19;;;11.78;58.01
58239;BME280;44037;55.638;37.356;2023-04-23T03:55:14;99044.56;;;11.88;58.04
58239;BME280;44037;55.638;37.356;2023-04-23T03:57:43;99045.41;;;11.99;57.60
58239;BME280;44037;55.638;37.356;2023-04-23T04:00:11;99047.97;;;12.08;57.59
58239;BME280;44037;55.638;37.356;2023-04-23T04:02:40;99051.34;;;12.18;57.25
58239;BME280;44037;55.638;37.356;2023-04-23T04:05:07;99059.09;;;12.27;56.65
58239;BME280;44037;55.638;37.356;2023-04-23T04:07:35;99052.94;;;12.38;56.85
58239;BME280;44037;55.638;37.356;2023-04-23T04:10:03;99046.81;;;12.47;56.67
58239;BME280;44037;55.638;37.356;2023-04-23T04:12:31;99051.91;;;12.57;55.76
58239;BME280;44037;55.638;37.356;2023-04-23T04:14:59;99055.31;;;12.64;55.43
58239;BME280;44037;55.638;37.356;2023-04-23T04:17:32;99056.13;;;12.71;56.14
58239;BME280;44037;55.638;37.356;2023-04-23T04:20:00;99058.69;;;12.75;55.05
58239;BME280;44037;55.638;37.356;2023-04-23T04:22:28;99058.66;;;12.79;54.66
58239;BME280;44037;55.638;37.356;2023-04-23T04:24:55;99062.97;;;12.83;54.01
58239;BME280;44037;55.638;37.356;2023-04-23T04:27:22;99058.53;;;12.91;53.72
58239;BME280;44037;55.638;37.356;2023-04-23T04:29:50;99055.91;;;12.97;52.85
58239;BME280;44037;55.638;37.356;2023-04-23T04:32:19;99060.97;;;13.08;53.29
58239;BME280;44037;55.638;37.356;2023-04-23T04:34:48;99063.47;;;13.17;52.90
58239;BME280;44037;55.638;37.356;2023-04-23T04:37:15;99069.44;;;13.27;52.92
58239;BME280;44037;55.638;37.356;2023-04-23T04:39:42;99073.72;;;13.34;51.93
58239;BME280;44037;55.638;37.356;2023-04-23T04:42:10;99065.84;;;13.41;52.00
58239;BME280;44037;55.638;37.356;2023-04-23T04:44:38;99070.94;;;13.50;51.56
58239;BME280;44037;55.638;37.356;2023-04-23T04:47:05;99067.41;;;13.57;51.33
58239;BME280;44037;55.638;37.356;2023-04-23T04:49:34;99074.22;;;13.67;50.82
58239;BME280;44037;55.638;37.356;2023-04-23T04:52:01;99082.75;;;13.79;50.46
58239;BME280;44037;55.638;37.356;2023-04-23T04:54:29;99078.22;;;13.93;49.99
58239;BME280;44037;55.638;37.356;2023-04-23T04:56:56;99072.81;;;14.09;49.27
58239;BME280;44037;55.638;37.356;2023-04-23T04:59:23;99079.50;;;14.27;48.53
58239;BME280;44037;55.638;37.356;2023-04-23T05:01:51;99077.47;;;14.46;48.47
58239;BME280;44037;55.638;37.356;2023-04-23T05:04:18;99075.44;;;14.64;48.02
58239;BME280;44037;55.638;37.356;2023-04-23T05:06:47;99086.34;;;14.89;47.45
58239;BME280;44037;55.638;37.356;2023-04-23T05:09:14;99084.19;;;15.13;47.27
58239;BME280;44037;55.638;37.356;2023-04-23T05:11:41;99084.56;;;15.38;47.12
58239;BME280;44037;55.638;37.356;2023-04-23T05:14:09;99089.41;;;15.60;46.74
58239;BME280;44037;55.638;37.356;2023-04-23T05:16:37;99091.47;;;15.86;46.25
58239;BME280;44037;55.638;37.356;2023-04-23T05:19:04;99083.16;;;16.09;45.17
58239;BME280;44037;55.638;37.356;2023-04-23T05:21:33;99091.31;;;16.33;44.87
58239;BME280;44037;55.638;37.356;2023-04-23T05:24:01;99096.81;;;16.58;44.20
58239;BME280;44037;55.638;37.356;2023-04-23T05:26:28;99092.88;;;16.77;43.79
58239;BME280;44037;55.638;37.356;2023-04-23T05:28:55;99089.94;;;16.91;42.47
58239;BME280;44037;55.638;37.356;2023-04-23T05:31:22;99093.13;;;17.03;42.02
58239;BME280;44037;55.638;37.356;2023-04-23T05:33:50;99098.03;;;17.16;42.20
58239;BME280;44037;55.638;37.356;2023-04-23T05:36:17;99090.75;;;17.27;41.09
58239;BME280;44037;55.638;37.356;2023-04-23T05:38:44;99087.03;;;17.36;40.98
58239;BME280;44037;55.638;37.356;2023-04-23T05:41:13;99086.81;;;17.44;39.93
58239;BME280;44037;55.638;37.356;2023-04-23T05:43:41;99090.88;;;17.56;39.31
58239;BME280;44037;55.638;37.356;2023-04-23T05:46:08;99090.53;;;17.66;39.40
58239;BME280;44037;55.638;37.356;2023-04-23T05:48:35;99094.59;;;17.77;38.80
58239;BME280;44037;55.638;37.356;2023-04-23T05:51:03;99096.97;;;17.86;37.94
58239;BME280;44037;55.638;37.356;2023-04-23T05:53:30;99095.75;;;17.98;37.04
58239;BME280;44037;55.638;37.356;2023-04-23T05:55:57;99096.31;;;18.09;36.59
58239;BME280;44037;55.638;37.356;2023-04-23T05:58:25;99091.84;;;18.13;36.12
58239;BME280;44037;55.638;37.356;2023-04-23T06:00:53;99092.63;;;18.15;36.10
58239;BME280;44037;55.638;37.356;2023-04-23T06:03:20;99095.13;;;18.20;36.08
58239;BME280;44037;55.638;37.356;2023-04-23T06:05:47;99098.22;;;18.33;35.65
58239;BME280;44037;55.638;37.356;2023-04-23T06:08:14;99102.91;;;18.51;35.29
58239;BME280;44037;55.638;37.356;2023-04-23T06:10:41;99104.00;;;18.71;34.88
58239;BME280;44037;55.638;37.356;2023-04-23T06:13:09;99106.16;;;18.85;34.28
58239;BME280;44037;55.638;37.356;2023-04-23T06:15:37;99106.75;;;18.95;33.83
58239;BME280;44037;55.638;37.356;2023-04-23T06:18:05;99111.81;;;19.01;33.84
58239;BME280;44037;55.638;37.356;2023-04-23T06:20:32;99109.00;;;19.06;34.15
58239;BME280;44037;55.638;37.356;2023-04-23T06:22:59;99112.16;;;19.15;33.88
58239;BME280;44037;55.638;37.356;2023-04-23T06:25:27;99118.84;;;19.26;33.62
58239;BME280;44037;55.638;37.356;2023-04-23T06:27:54;99111.59;;;19.32;33.49
58239;BME280;44037;55.638;37.356;2023-04-23T06:30:22;99113.09;;;19.40;33.40
58239;BME280;44037;55.638;37.356;2023-04-23T06:32:51;99116.41;;;19.45;32.72
58239;BME280;44037;55.638;37.356;2023-04-23T06:35:18;99121.50;;;19.49;32.62
58239;BME280;44037;55.638;37.356;2023-04-23T06:37:45;99118.53;;;19.59;32.72
58239;BME280;44037;55.638;37.356;2023-04-23T06:40:13;99125.16;;;19.69;32.80
58239;BME280;44037;55.638;37.356;2023-04-23T06:42:40;99121.22;;;19.81;32.12
58239;BME280;44037;55.638;37.356;2023-04-23T06:45:08;99125.34;;;19.90;31.53
58239;BME280;44037;55.638;37.356;2023-04-23T06:47:35;99130.22;;;19.99;31.62
58239;BME280;44037;55.638;37.356;2023-04-23T06:50:06;99129.75;;;20.12;31.58
58239;BME280;44037;55.638;37.356;2023-04-23T06:52:33;99128.50;;;20.22;31.01
58239;BME280;44037;55.638;37.356;2023-04-23T06:55:01;99123.22;;;20.22;31.07
58239;BME280;44037;55.638;37.356;2023-04-23T06:57:29;99122.22;;;20.26;31.30
58239;BME280;44037;55.638;37.356;2023-04-23T06:59:56;99129.78;;;20.34;31.33
58239;BME280;44037;55.638;37.356;2023-04-23T07:02:23;99130.03;;;20.50;31.34
58239;BME280;44037;55.638;37.356;2023-04-23T07:04:54;99123.38;;;20.63;30.84
58239;BME280;44037;55.638;37.356;2023-04-23T07:07:22;99131.72;;;20.75;30.73
58239;BME280;44037;55.638;37.356;2023-04-23T07:09:49;99133.84;;;20.87;30.77
58239;BME280;44037;55.638;37.356;2023-04-23T07:12:16;99125.53;;;20.96;30.27
58239;BME280;44037;55.638;37.356;2023-04-23T07:14:44;99130.69;;;20.99;30.12
58239;BME280;44037;55.638;37.356;2023-04-23T07:17:11;99127.13;;;21.00;30.01
58239;BME280;44037;55.638;37.356;2023-04-23T07:19:38;99131.50;;;21.01;30.32
58239;BME280;44037;55.638;37.356;2023-04-23T07:22:05;99137.41;;;21.07;30.04
58239;BME280;44037;55.638;37.356;2023-04-23T07:24:34;99124.91;;;21.12;29.43
58239;BME280;44037;55.638;37.356;2023-04-23T07:27:01;99138.00;;;21.13;29.67
58239;BME280;44037;55.638;37.356;2023-04-23T07:29:28;99135.97;;;21.20;30.10
58239;BME280;44037;55.638;37.356;2023-04-23T07:31:56;99132.53;;;21.39;29.94
58239;BME280;44037;55.638;37.356;2023-04-23T07:34:23;99131.88;;;21.54;29.57
58239;BME280;44037;55.638;37.356;2023-04-23T07:36:50;99131.38;;;21.67;29.31
58239;BME280;44037;55.638;37.356;2023-04-23T07:39:17;99133.03;;;21.68;28.34
58239;BME280;44037;55.638;37.356;2023-04-23T07:41:46;99139.13;;;21.49;28.89
58239;BME280;44037;55.638;37.356;2023-04-23T07:44:13;99135.44;;;21.32;29.27
58239;BME280;44037;55.638;37.356;2023-04-23T07:46:41;99132.28;;;21.24;28.58
58239;BME280;44037;55.638;37.356;2023-04-23T07:49:08;99128.53;;;21.09;28.41
58239;BME280;44037;55.638;37.356;2023-04-23T07:51:35;99131.44;;;20.81;27.61
58239;BME280;44037;55.638;37.356;2023-04-23T07:54:03;99132.47;;;20.32;28.43
58239;BME280;44037;55.638;37.356;2023-04-23T07:56:30;99138.50;;;19.88;28.18
58239;BME280;44037;55.638;37.356;2023-04-23T07:58:59;99134.97;;;19.40;28.66
58239;BME280;44037;55.638;37.356;2023-04-23T08:01:27;99130.03;;;19.04;29.39
58239;BME280;44037;55.638;37.356;2023-04-23T08:03:54;99135.31;;;18.77;29.94
58239;BME280;44037;55.638;37.356;2023-04-23T08:06:22;99133.34;;;18.55;30.31
58239;BME280;44037;55.638;37.356;2023-04-23T08:08:49;99134.47;;;18.48;30.51
58239;BME280;44037;55.638;37.356;2023-04-23T08:11:17;99131.94;;;18.45;30.60
58239;BME280;44037;55.638;37.356;2023-04-23T08:13:44;99127.59;;;18.44;30.01
58239;BME280;44037;55.638;37.356;2023-04-23T08:16:13;99134.53;;;18.45;30.20
58239;BME280;44037;55.638;37.356;2023-04-23T08:18:40;99132.91;;;18.41;30.21
58239;BME280;44037;55.638;37.356;2023-04-23T08:21:07;99136.44;;;18.40;29.97
58239;BME280;44037;55.638;37.356;2023-04-23T08:23:37;99135.03;;;18.58;29.56
58239;BME280;44037;55.638;37.356;2023-04-23T08:26:04;99129.34;;;18.72;28.82
58239;BME280;44037;55.638;37.356;2023-04-23T08:28:32;99132.63;;;18.79;28.73
58239;BME280;44037;55.638;37.356;2023-04-23T08:30:59;99131.09;;;19.00;28.66
58239;BME280;44037;55.638;37.356;2023-04-23T08:33:28;99127.19;;;19.37;27.73
58239;BME280;44037;55.638;37.356;2023-04-23T08:35:55;99126.41;;;19.83;27.80
58239;BME280;44037;55.638;37.356;2023-04-23T08:38:22;99122.13;;;20.28;25.47
58239;BME280;44037;55.638;37.356;2023-04-23T08:40:54;99120.31;;;20.52;25.25
58239;BME280;44037;55.638;37.356;2023-04-23T08:43:27;99109.66;;;20.77;25.39
58239;BME280;44037;55.638;37.356;2023-04-23T08:46:01;99112.34;;;21.18;25.65
58239;BME280;44037;55.638;37.356;2023-04-23T08:48:32;99106.84;;;21.65;23.90
58239;BME280;44037;55.638;37.356;2023-04-23T08:51:01;99106.28;;;21.77;23.72
58239;BME280;44037;55.638;37.356;2023-04-23T08:53:29;99111.56;;;21.77;23.42
58239;BME280;44037;55.638;37.356;2023-04-23T08:55:58;99105.06;;;21.65;24.41
58239;BME280;44037;55.638;37.356;2023-04-23T08:58:26;99095.44;;;21.64;24.49
58239;BME280;44037;55.638;37.356;2023-04-23T09:00:54;99099.78;;;21.65;24.15
58239;BME280;44037;55.638;37.356;2023-04-23T09:03:24;99096.31;;;21.65;25.33
58239;BME280;44037;55.638;37.356;2023-04-23T09:05:52;99096.00;;;21.71;23.64
58239;BME280;44037;55.638;37.356;2023-04-23T09:08:20;99108.28;;;21.30;23.36
58239;BME280;44037;55.638;37.356;2023-04-23T09:10:48;99106.47;;;20.69;23.60
58239;BME280;44037;55.638;37.356;2023-04-23T09:13:16;99110.50;;;20.11;24.52
58239;BME280;44037;55.638;37.356;2023-04-23T09:15:44;99106.03;;;19.65;24.79
58239;BME280;44037;55.638;37.356;2023-04-23T09:18:11;99108.47;;;19.46;25.36
58239;BME280;44037;55.638;37.356;2023-04-23T09:20:38;99108.56;;;19.43;26.06
58239;BME280;44037;55.638;37.356;2023-04-23T09:23:07;99106.66;;;19.48;26.03
58239;BME280;44037;55.638;37.356;2023-04-23T09:25:35;99101.97;;;19.57;26.81
58239;BME280;44037;55.638;37.356;2023-04-23T09:28:06;99108.03;;;19.59;26.27
58239;BME280;44037;55.638;37.356;2023-04-23T09:30:38;99101.16;;;19.55;25.40
58239;BME280;44037;55.638;37.356;2023-04-23T09:33:07;99109.72;;;19.36;25.40
58239;BME280;44037;55.638;37.356;2023-04-23T09:35:36;99110.56;;;19.11;26.00
58239;BME280;44037;55.638;37.356;2023-04-23T09:38:05;99108.75;;;18.86;25.93
58239;BME280;44037;55.638;37.356;2023-04-23T09:40:36;99103.44;;;18.61;25.97
58239;BME280;44037;55.638;37.356;2023-04-23T09:43:04;99101.06;;;18.53;26.33
58239;BME280;44037;55.638;37.356;2023-04-23T09:45:32;99101.06;;;18.53;26.96
58239;BME280;44037;55.638;37.356;2023-04-23T09:48:00;99095.47;;;18.64;27.54
58239;BME280;44037;55.638;37.356;2023-04-23T09:50:34;99090.53;;;18.82;27.54
58239;BME280;44037;55.638;37.356;2023-04-23T09:53:03;99094.09;;;19.06;27.17
58239;BME280;44037;55.638;37.356;2023-04-23T09:55:31;99106.44;;;19.29;26.39
58239;BME280;44037;55.638;37.356;2023-04-23T09:58:04;99093.03;;;19.37;25.05
58239;BME280;44037;55.638;37.356;2023-04-23T10:00:33;99093.38;;;19.28;25.32
58239;BME280;44037;55.638;37.356;2023-04-23T10:03:01;99087.31;;;19.26;25.68
58239;BME280;44037;55.638;37.356;2023-04-23T10:05:28;99081.72;;;19.35;27.63
58239;BME280;44037;55.638;37.356;2023-04-23T10:07:56;99078.28;;;19.58;25.98
58239;BME280;44037;55.638;37.356;2023-04-23T10:10:24;99076.28;;;19.65;25.21
58239;BME280;44037;55.638;37.356;2023-04-23T10:12:52;99076.38;;;19.62;25.46
58239;BME280;44037;55.638;37.356;2023-04-23T10:15:22;99086.72;;;19.67;25.68
58239;BME280;44037;55.638;37.356;2023-04-23T10:17:51;99075.94;;;19.74;24.79
58239;BME280;44037;55.638;37.356;2023-04-23T10:20:20;99078.31;;;19.80;25.05
58239;BME280;44037;55.638;37.356;2023-04-23T10:22:48;99075.22;;;19.94;24.79
58239;BME280;44037;55.638;37.356;2023-04-23T10:25:15;99073.41;;;19.95;25.30
58239;BME280;44037;55.638;37.356;2023-04-23T10:27:48;99076.84;;;19.97;25.32
58239;BME280;44037;55.638;37.356;2023-04-23T10:30:16;99085.66;;;19.96;24.35
58239;BME280;44037;55.638;37.356;2023-04-23T10:32:46;99079.72;;;19.91;24.79
58239;BME280;44037;55.638;37.356;2023-04-23T10:35:14;99074.41;;;19.92;25.47
58239;BME280;44037;55.638;37.356;2023-04-23T10:37:42;99067.75;;;20.06;25.48
58239;BME280;44037;55.638;37.356;2023-04-23T10:40:12;99063.66;;;20.21;25.20
58239;BME280;44037;55.638;37.356;2023-04-23T10:42:41;99063.97;;;20.35;25.00
58239;BME280;44037;55.638;37.356;2023-04-23T10:45:13;99062.47;;;20.50;25.13
58239;BME280;44037;55.638;37.356;2023-04-23T10:47:45;99056.78;;;20.61;24.93
58239;BME280;44037;55.638;37.356;2023-04-23T10:50:21;99049.81;;;20.60;24.62
58239;BME280;44037;55.638;37.356;2023-04-23T10:52:49;99055.47;;;20.51;24.50
58239;BME280;44037;55.638;37.356;2023-04-23T10:55:20;99054.13;;;20.40;24.50
58239;BME280;44037;55.638;37.356;2023-04-23T10:57:58;99057.16;;;20.52;24.35
58239;BME280;44037;55.638;37.356;2023-04-23T11:00:27;99045.75;;;20.74;24.62
58239;BME280;44037;55.638;37.356;2023-04-23T11:02:56;99036.75;;;21.00;24.57
58239;BME280;44037;55.638;37.356;2023-04-23T11:05:23;99036.66;;;21.22;24.50
58239;BME280;44037;55.638;37.356;2023-04-23T11:08:02;99035.44;;;21.50;23.92
58239;BME280;44037;55.638;37.356;2023-04-23T11:10:30;99030.19;;;21.69;23.59
58239;BME280;44037;55.638;37.356;2023-04-23T11:13:20;99041.19;;;21.79;23.81
58239;BME280;44037;55.638;37.356;2023-04-23T11:15:48;99041.00;;;21.63;23.08
58239;BME280;44037;55.638;37.356;2023-04-23T11:18:17;99041.25;;;21.38;23.68
58239;BME280;44037;55.638;37.356;2023-04-23T11:20:46;99040.94;;;21.25;23.52
58239;BME280;44037;55.638;37.356;2023-04-23T11:23:28;99039.59;;;20.95;23.80
58239;BME280;44037;55.638;37.356;2023-04-23T11:25:58;99038.38;;;20.61;23.92
58239;BME280;44037;55.638;37.356;2023-04-23T11:28:27;99039.56;;;20.32;24.29
58239;BME280;44037;55.638;37.356;2023-04-23T11:30:57;99040.28;;;20.13;24.92
58239;BME280;44037;55.638;37.356;2023-04-23T11:33:26;99044.91;;;20.08;25.32
58239;BME280;44037;55.638;37.356;2023-04-23T11:35:53;99036.41;;;20.01;24.81
58239;BME280;44037;55.638;37.356;2023-04-23T11:38:21;99033.00;;;19.98;25.16
58239;BME280;44037;55.638;37.356;2023-04-23T11:40:50;99037.25;;;20.02;24.76
58239;BME280;44037;55.638;37.356;2023-04-23T11:43:18;99034.78;;;19.97;24.52
58239;BME280;44037;55.638;37.356;2023-04-23T11:45:46;99029.97;;;19.85;25.29
58239;BME280;44037;55.638;37.356;2023-04-23T11:48:14;99029.97;;;19.85;25.30
58239;BME280;44037;55.638;37.356;2023-04-23T11:50:42;99034.88;;;19.95;25.33
58239;BME280;44037;55.638;37.356;2023-04-23T11:53:10;99033.59;;;20.06;25.25
58239;BME280;44037;55.638;37.356;2023-04-23T11:55:38;99027.34;;;20.08;25.99
58239;BME280;44037;55.638;37.356;2023-04-23T11:58:08;99038.47;;;20.15;25.30
58239;BME280;44037;55.638;37.356;2023-04-23T12:00:36;99026.34;;;20.11;25.73
58239;BME280;44037;55.638;37.356;2023-04-23T12:03:03;99029.16;;;20.06;25.27
58239;BME280;44037;55.638;37.356;2023-04-23T12:05:33;99034.19;;;19.90;25.40
58239;BME280;44037;55.638;37.356;2023-04-23T12:08:11;99033.59;;;19.82;26.17
58239;BME280;44037;55.638;37.356;2023-04-23T12:10:44;99027.75;;;19.74;25.78
58239;BME280;44037;55.638;37.356;2023-04-23T12:13:15;99021.66;;;19.73;25.19
58239;BME280;44037;55.638;37.356;2023-04-23T12:15:46;99021.78;;;19.70;25.11
58239;BME280;44037;55.638;37.356;2023-04-23T12:18:15;99017.44;;;19.69;25.21
58239;BME280;44037;55.638;37.356;2023-04-23T12:20:43;99013.84;;;19.72;25.39
58239;BME280;44037;55.638;37.356;2023-04-23T12:23:12;99021.41;;;19.79;25.77
58239;BME280;44037;55.638;37.356;2023-04-23T12:25:39;99022.75;;;19.91;25.99
58239;BME280;44037;55.638;37.356;2023-04-23T12:28:07;99018.22;;;19.95;25.30
58239;BME280;44037;55.638;37.356;2023-04-23T12:30:42;99019.09;;;19.95;26.93
58239;BME280;44037;55.638;37.356;2023-04-23T12:33:10;99022.06;;;20.08;25.33
58239;BME280;44037;55.638;37.356;2023-04-23T12:35:39;99020.03;;;19.93;25.40
58239;BME280;44037;55.638;37.356;2023-04-23T12:38:06;99018.56;;;19.86;25.65
58239;BME280;44037;55.638;37.356;2023-04-23T12:40:35;99019.53;;;19.83;25.33
58239;BME280;44037;55.638;37.356;2023-04-23T12:43:02;99016.69;;;19.89;25.66
58239;BME280;44037;55.638;37.356;2023-04-23T12:45:36;99006.78;;;19.96;25.66
58239;BME280;44037;55.638;37.356;2023-04-23T12:48:03;99006.41;;;20.05;25.30
58239;BME280;44037;55.638;37.356;2023-04-23T12:50:31;99000.94;;;20.12;25.05
58239;BME280;44037;55.638;37.356;2023-04-23T12:52:58;98998.91;;;20.18;25.32
58239;BME280;44037;55.638;37.356;2023-04-23T12:55:25;98998.72;;;20.23;25.16
58239;BME280;44037;55.638;37.356;2023-04-23T12:57:54;99000.31;;;20.27;25.12